Flight Briefing for CPX401

Departure Arrival
Seattle-Tacoma International Airport (KSEA)
Click to view FAA NOTAMS
Miami International Airport (KMIA)
Click to view FAA NOTAMS
Departure Time Arrival Time
N/A N/A
Aircraft Distance
B757-200SF 2411nm
Departure METAR Arrival METAR
KSEA 152031Z 19011KT 10SM SCT020 BKN036 BKN250 06/03 A2964 RMK AO2 T00610028 KMIA 151953Z 14009KT 10SM SCT032 BKN250 26/19 A2993 RMK AO2 SLP136 T02560189
Suggested Route
SEA NORMY J90 MWH DLN DDY BFF SGF MEM MGM SZW PLYER JUULI SSCOT5


View recent IFR Routes data
Notes



Charts and Procedures

Charts for KSEA
No chart available
Charts for KMIA
No chart available

Ventusky Weather